Time;durP1;ratioP1;P1;durP2;ratioP2;P2;SDS_P1;SDS_P2;PMS_P1;PMS_P2;Temp;Humidity;BMP_temperature;BMP_pressure;BME280_temperature;BME280_humidity;BME280_pressure;Samples;Min_cycle;Max_cycle;Signal;HPM_P1;HPM_P2
2021/05/12 00:00:07;;;;;;;;;;;12.70;99.90;;;;;;5076613;28;19991;-81
2021/05/12 00:02:33;;;;;;;;;;;12.70;99.90;;;;;;5072215;28;19911;-79
2021/05/12 00:04:58;;;;;;;;;;;12.70;99.90;;;;;;5072235;28;19904;-80
2021/05/12 00:07:24;;;;;;;;;;;12.70;99.90;;;;;;5072239;28;19904;-80
2021/05/12 00:09:50;;;;;;;;;;;12.70;99.90;;;;;;5071804;28;20006;-79
2021/05/12 00:12:15;;;;;;;;;;;12.70;99.90;;;;;;5072276;28;19908;-80
2021/05/12 00:14:41;;;;;;;;;;;12.70;99.90;;;;;;5071251;28;19954;-79
2021/05/12 00:17:08;;;;;;;;;;;12.70;99.90;;;;;;5072043;28;19915;-79
2021/05/12 00:19:36;;;;;;;;;;;12.70;99.90;;;;;;5071651;28;20283;-80
2021/05/12 00:24:33;;;;;;;;;;;12.70;99.90;;;;;;5073143;28;19915;-80
2021/05/12 00:26:59;;;;;;;;;;;12.70;99.90;;;;;;5071909;28;19908;-80
2021/05/12 00:29:24;;;;;;;;;;;12.70;99.90;;;;;;5071630;28;20363;-81
2021/05/12 00:31:50;;;;;;;;;;;12.70;99.90;;;;;;5071863;28;20310;-80
2021/05/12 00:34:15;;;;;;;;;;;12.60;99.90;;;;;;5071634;28;20352;-80
2021/05/12 00:36:41;;;;;;;;;;;12.60;99.90;;;;;;5071792;28;19908;-80
2021/05/12 00:39:07;;;;;;;;;;;12.70;99.90;;;;;;5071262;28;19908;-80
2021/05/12 00:41:36;;;;;;;;;;;12.70;99.90;;;;;;5071648;28;19905;-80
2021/05/12 00:44:02;;;;;;;;;;;12.70;99.90;;;;;;5084156;28;19911;-80
2021/05/12 00:46:28;;;;;;;;;;;12.70;99.90;;;;;;5091784;28;19911;-80
2021/05/12 00:48:53;;;;;;;;;;;12.70;99.90;;;;;;5091557;28;19904;-80
2021/05/12 00:51:19;;;;;;;;;;;12.70;99.90;;;;;;5091659;28;19904;-79
2021/05/12 00:53:44;;;;;;;;;;;12.70;99.90;;;;;;5091739;28;19904;-79
2021/05/12 00:56:12;;;;;;;;;;;12.60;99.90;;;;;;5091724;28;19987;-79
2021/05/12 00:58:38;;;;;;;;;;;12.50;99.90;;;;;;5091969;28;19962;-80
2021/05/12 01:01:03;;;;;;;;;;;12.50;99.90;;;;;;5092421;28;20363;-79
2021/05/12 01:03:28;;;;;;;;;;;12.60;99.90;;;;;;5092988;28;19911;-80
2021/05/12 01:05:54;;;;;;;;;;;12.60;99.90;;;;;;5091577;28;19904;-79
2021/05/12 01:08:19;;;;;;;;;;;12.50;99.90;;;;;;5091436;28;19911;-79
2021/05/12 01:10:45;;;;;;;;;;;12.50;99.90;;;;;;5091795;28;19911;-79
2021/05/12 01:13:12;;;;;;;;;;;12.50;99.90;;;;;;5092680;28;20252;-79
2021/05/12 01:15:39;;;;;;;;;;;12.40;99.90;;;;;;5091641;28;19911;-79
2021/05/12 01:18:11;;;;;;;;;;;12.50;99.90;;;;;;5091444;28;20078;-79
2021/05/12 01:20:49;;;;;;;;;;;12.30;99.90;;;;;;5091118;28;19904;-79
2021/05/12 01:23:15;;;;;;;;;;;12.40;99.90;;;;;;5091418;28;20324;-79
2021/05/12 01:25:40;;;;;;;;;;;12.40;99.90;;;;;;5092905;28;19904;-80
2021/05/12 01:28:06;;;;;;;;;;;12.30;99.90;;;;;;5095814;28;19908;-80
2021/05/12 01:30:31;;;;;;;;;;;12.30;99.90;;;;;;5096498;28;19947;-79
2021/05/12 01:33:00;;;;;;;;;;;12.30;99.90;;;;;;5095292;28;19995;-79
2021/05/12 01:35:25;;;;;;;;;;;12.30;99.90;;;;;;5095182;28;19918;-79
2021/05/12 01:37:51;;;;;;;;;;;12.20;99.90;;;;;;5095451;28;19908;-79
2021/05/12 01:40:16;;;;;;;;;;;12.10;99.90;;;;;;5095115;28;20255;-79
2021/05/12 01:42:42;;;;;;;;;;;12.30;99.90;;;;;;5096404;28;19904;-79
2021/05/12 01:45:08;;;;;;;;;;;12.20;99.90;;;;;;5095091;28;19958;-79
2021/05/12 01:47:34;;;;;;;;;;;12.20;99.90;;;;;;5094907;28;20355;-79
2021/05/12 01:50:04;;;;;;;;;;;12.10;99.90;;;;;;5094819;28;19904;-79
2021/05/12 01:52:29;;;;;;;;;;;12.10;99.90;;;;;;5095089;28;20301;-79
2021/05/12 01:54:55;;;;;;;;;;;12.10;99.90;;;;;;5094897;28;19904;-79
2021/05/12 01:57:20;;;;;;;;;;;12.10;99.90;;;;;;5094924;28;20264;-80
2021/05/12 01:59:46;;;;;;;;;;;12.10;99.90;;;;;;5094582;28;19907;-79
2021/05/12 02:02:11;;;;;;;;;;;12.10;99.90;;;;;;5094724;28;19904;-80
2021/05/12 02:04:38;;;;;;;;;;;12.10;99.90;;;;;;5096074;28;19911;-79
2021/05/12 02:07:03;;;;;;;;;;;12.10;99.90;;;;;;5094701;28;19905;-79
2021/05/12 02:09:34;;;;;;;;;;;12.10;99.90;;;;;;5094421;28;19926;-79
2021/05/12 02:11:59;;;;;;;;;;;12.00;99.90;;;;;;5095815;28;20017;-79
2021/05/12 02:14:26;;;;;;;;;;;12.00;99.90;;;;;;5094606;28;19926;-80
2021/05/12 02:16:52;;;;;;;;;;;12.00;99.90;;;;;;5094379;28;19996;-80
2021/05/12 02:19:17;;;;;;;;;;;12.00;99.90;;;;;;5094169;28;19952;-80
2021/05/12 02:21:43;;;;;;;;;;;12.00;99.90;;;;;;5094390;28;19908;-80
2021/05/12 02:24:08;;;;;;;;;;;12.00;99.90;;;;;;5095641;28;19908;-80
2021/05/12 02:26:34;;;;;;;;;;;12.00;99.90;;;;;;5095621;28;19912;-79
2021/05/12 02:28:59;;;;;;;;;;;12.00;99.90;;;;;;5094128;28;20363;-79
2021/05/12 02:31:25;;;;;;;;;;;12.00;99.90;;;;;;5094244;28;19904;-79
2021/05/12 02:33:50;;;;;;;;;;;12.00;99.90;;;;;;5094245;28;20006;-79
2021/05/12 02:36:16;;;;;;;;;;;12.00;99.90;;;;;;5093863;28;19920;-80
2021/05/12 02:38:41;;;;;;;;;;;12.00;99.90;;;;;;5093242;28;19969;-80
2021/05/12 02:41:07;;;;;;;4.45;3.67;;;12.00;99.90;;;;;;5093719;28;20384;-79
2021/05/12 02:43:32;;;;;;;4.80;3.45;;;11.90;99.90;;;;;;5093691;28;20020;-80
2021/05/12 02:45:58;;;;;;;;;;;11.90;99.90;;;;;;5095288;28;19904;-80
2021/05/12 02:48:23;;;;;;;;;;;11.90;99.90;;;;;;5095119;28;19908;-79
2021/05/12 02:50:49;;;;;;;;;;;11.90;99.90;;;;;;5099803;28;19911;-80
2021/05/12 02:53:15;;;;;;;;;;;11.90;99.90;;;;;;5098963;28;19904;-82
2021/05/12 02:55:40;;;;;;;;;;;11.90;99.90;;;;;;5098456;28;19911;-81
2021/05/12 02:58:08;;;;;;;;;;;11.90;99.90;;;;;;5095089;28;19915;-80
2021/05/12 03:00:34;;;;;;;;;;;11.80;99.90;;;;;;5093425;28;19904;-80
2021/05/12 03:02:59;;;;;;;;;;;11.90;99.90;;;;;;5093936;28;19951;-80
2021/05/12 03:05:26;;;;;;;;;;;11.90;99.90;;;;;;5094049;28;19946;-80
2021/05/12 03:07:51;;;;;;;;;;;11.90;99.90;;;;;;5093725;28;19904;-80
2021/05/12 03:10:19;;;;;;;;;;;12.00;99.90;;;;;;5093448;28;19910;-80
2021/05/12 03:12:44;;;;;;;;;;;11.90;99.90;;;;;;5094716;28;19911;-80
2021/05/12 03:15:12;;;;;;;;;;;11.90;99.90;;;;;;5093398;28;19912;-80
2021/05/12 03:17:37;;;;;;;;;;;11.90;99.90;;;;;;5093204;28;19908;-80
2021/05/12 03:20:03;;;;;;;;;;;11.80;99.90;;;;;;5093088;28;20022;-80
2021/05/12 03:22:29;;;;;;;;;;;11.90;99.90;;;;;;5093383;28;19911;-80
2021/05/12 03:24:54;;;;;;;;;;;11.80;99.90;;;;;;5093400;28;19904;-80
2021/05/12 03:27:20;;;;;;;;;;;11.80;99.90;;;;;;5093263;28;19911;-80
2021/05/12 03:29:45;;;;;;;;;;;11.80;99.90;;;;;;5092857;28;20391;-80
2021/05/12 03:32:11;;;;;;;;;;;11.80;99.90;;;;;;5093006;28;19904;-79
2021/05/12 03:34:36;;;;;;;;;;;11.80;99.90;;;;;;5094053;28;19912;-79
2021/05/12 03:37:02;;;;;;;;;;;11.70;99.90;;;;;;5092938;28;19908;-78
2021/05/12 03:39:28;;;;;;;;;;;11.80;99.90;;;;;;5092828;28;19903;-79
2021/05/12 03:41:53;;;;;;;;;;;11.80;99.90;;;;;;5092905;28;19987;-79
2021/05/12 03:44:19;;;;;;;;;;;11.80;99.90;;;;;;5092772;28;20004;-78
2021/05/12 03:46:44;;;;;;;;;;;11.80;99.90;;;;;;5092684;28;19908;-79
2021/05/12 03:49:10;;;;;;;;;;;11.80;99.90;;;;;;5092333;28;19908;-79
2021/05/12 03:51:35;;;;;;;;;;;11.70;99.90;;;;;;5093995;28;19908;-78
2021/05/12 03:54:01;;;;;;;;;;;11.70;99.90;;;;;;5092685;28;19904;-78
2021/05/12 03:56:26;;;;;;;;;;;11.70;99.90;;;;;;5093729;28;19926;-78
2021/05/12 03:58:52;;;;;;;;;;;11.70;99.90;;;;;;5092403;28;19904;-80
2021/05/12 04:01:17;;;;;;;;;;;11.80;99.90;;;;;;5092304;28;19957;-78
2021/05/12 04:03:43;;;;;;;;;;;11.80;99.90;;;;;;5092615;28;20003;-80
2021/05/12 04:06:08;;;;;;;;;;;11.80;99.90;;;;;;5092337;28;19904;-79
2021/05/12 04:08:33;;;;;;;;;;;11.80;99.90;;;;;;5093554;28;19904;-80
2021/05/12 04:10:59;;;;;;;;;;;11.80;99.90;;;;;;5092443;28;20378;-78
2021/05/12 04:13:24;;;;;;;;;;;11.80;99.90;;;;;;5092316;28;20003;-80
2021/05/12 04:15:50;;;;;;;;;;;11.80;99.90;;;;;;5092186;28;19904;-79
2021/05/12 04:18:16;;;;;;;;;;;11.70;99.90;;;;;;5092074;28;19912;-79
2021/05/12 04:20:41;;;;;;;;;;;11.70;99.90;;;;;;5092197;28;20370;-78
2021/05/12 04:23:07;;;;;;;;;;;11.70;99.90;;;;;;5087139;28;19908;-79
2021/05/12 04:25:33;;;;;;;;;;;11.70;99.90;;;;;;5074597;28;19958;-80
2021/05/12 04:27:59;;;;;;;;;;;11.70;99.90;;;;;;5082713;28;20244;-78
2021/05/12 04:30:25;;;;;;;;;;;11.70;99.90;;;;;;5079811;28;19914;-79
2021/05/12 04:32:50;;;;;;;;;;;11.70;99.90;;;;;;5078614;28;19904;-78
2021/05/12 04:35:20;;;;;;;;;;;11.70;99.90;;;;;;5088924;28;19995;-80
2021/05/12 04:37:46;;;;;;;;;;;11.70;99.90;;;;;;5091870;28;19908;-80
2021/05/12 04:40:12;;;;;;;;;;;11.70;99.90;;;;;;5089950;28;19904;-80
2021/05/12 04:42:38;;;;;;;;;;;11.70;99.90;;;;;;5080047;28;19905;-79
2021/05/12 04:45:05;;;;;;;;;;;11.80;99.90;;;;;;5079619;28;19915;-80
2021/05/12 04:47:30;;;;;;;;;;;11.80;99.90;;;;;;5074150;28;19904;-78
2021/05/12 04:49:55;;;;;;;;;;;11.80;99.90;;;;;;5069680;28;19953;-78
2021/05/12 04:52:21;;;;;;;;;;;11.80;99.90;;;;;;5070376;28;19958;-78
2021/05/12 04:54:46;;;;;;;;;;;11.90;99.90;;;;;;5070532;28;19908;-80
2021/05/12 04:57:12;;;;;;;;;;;11.90;99.90;;;;;;5070380;28;19915;-79
2021/05/12 04:59:37;;;;;;;;;;;11.90;99.90;;;;;;5069845;28;19904;-78
2021/05/12 05:02:04;;;;;;;;;;;11.90;99.90;;;;;;5070672;28;19910;-78
2021/05/12 05:04:30;;;;;;;;;;;12.00;99.90;;;;;;5070699;28;20275;-80
2021/05/12 05:06:56;;;;;;;;;;;12.00;99.90;;;;;;5070390;28;19908;-79
2021/05/12 05:09:21;;;;;;;;;;;11.90;99.90;;;;;;5069811;28;20007;-77
2021/05/12 05:11:48;;;;;;;;;;;12.00;99.90;;;;;;5071964;28;19920;-79
2021/05/12 05:14:13;;;;;;;;;;;12.00;99.90;;;;;;5071631;28;19908;-81
2021/05/12 05:16:39;;;;;;;;;;;12.00;99.90;;;;;;5072677;28;19931;-81
2021/05/12 05:19:05;;;;;;;;;;;12.00;99.90;;;;;;5090251;28;20290;-81
2021/05/12 05:21:30;;;;;;;;;;;12.00;99.90;;;;;;5090248;28;20027;-81
2021/05/12 05:23:56;;;;;;;;;;;12.00;99.90;;;;;;5090444;28;20338;-80
2021/05/12 05:26:21;;;;;;;;;;;12.00;99.90;;;;;;5090323;28;19912;-81
2021/05/12 05:28:47;;;;;;;;;;;12.10;99.90;;;;;;5091378;28;19908;-80
2021/05/12 05:31:12;;;;;;;;;;;12.20;99.90;;;;;;5090003;28;20332;-81
2021/05/12 05:33:38;;;;;;;;;;;12.20;99.90;;;;;;5090192;28;19904;-81
2021/05/12 05:36:03;;;;;;;;;;;12.30;99.90;;;;;;5090216;28;19979;-79
2021/05/12 05:38:29;;;;;;;;;;;12.40;99.90;;;;;;5091300;28;20449;-81
2021/05/12 05:40:55;;;;;;;;;;;12.30;99.90;;;;;;5089967;28;20003;-79
2021/05/12 05:43:20;;;;;;;;;;;12.40;99.90;;;;;;5090699;28;20018;-79
2021/05/12 05:45:46;;;;;;;;;;;12.40;99.90;;;;;;5091479;28;20362;-81
2021/05/12 05:48:11;;;;;;;;;;;12.50;99.90;;;;;;5097466;28;19904;-82
2021/05/12 05:50:37;;;;;;;;;;;12.40;99.90;;;;;;5097461;28;19915;-80
2021/05/12 05:53:03;;;;;;;;;;;12.50;99.90;;;;;;5096874;28;19997;-81
2021/05/12 05:55:28;;;;;;;;;;;12.50;99.90;;;;;;5093345;28;19904;-79
2021/05/12 05:57:54;;;;;;;;;;;12.50;99.90;;;;;;5091461;28;19947;-82
2021/05/12 06:00:20;;;;;;;;;;;12.50;99.90;;;;;;5090046;28;20389;-81
2021/05/12 06:02:46;;;;;;;;;;;12.50;99.90;;;;;;5090501;28;20438;-82
2021/05/12 06:05:11;;;;;;;;;;;12.50;99.90;;;;;;5091180;28;20336;-81
2021/05/12 06:07:38;;;;;;;;;;;12.40;99.90;;;;;;5091623;28;19990;-81
2021/05/12 06:10:04;;;;;;;;;;;12.50;99.90;;;;;;5092032;28;19904;-79
2021/05/12 06:12:29;;;;;;;;;;;12.60;99.90;;;;;;5091340;28;19915;-77
2021/05/12 06:14:57;;;;;;;;;;;12.50;99.90;;;;;;5094870;28;20006;-80
2021/05/12 06:17:23;;;;;;;;;;;12.60;99.90;;;;;;5094013;28;19957;-81
2021/05/12 06:19:48;;;;;;;;;;;12.60;99.90;;;;;;5094079;28;19908;-79
2021/05/12 06:22:15;;;;;;;;;;;12.60;99.90;;;;;;5094737;28;19951;-79
2021/05/12 06:24:41;;;;;;;;;;;12.70;99.90;;;;;;5094001;28;19994;-80
2021/05/12 06:27:06;;;;;;;;;;;12.80;99.90;;;;;;5094005;28;19981;-80
2021/05/12 06:29:32;;;;;;;;;;;12.80;99.90;;;;;;5094972;28;19911;-78
2021/05/12 06:31:57;;;;;;;;;;;12.90;99.90;;;;;;5093764;28;19951;-78
2021/05/12 06:34:22;;;;;;;;;;;12.90;99.90;;;;;;5093570;28;19915;-80
2021/05/12 06:36:48;;;;;;;;;;;12.90;99.90;;;;;;5093492;28;19966;-78
2021/05/12 06:39:13;;;;;;;;;;;13.00;99.90;;;;;;5093547;28;20298;-79
2021/05/12 06:41:39;;;;;;;;;;;13.10;99.90;;;;;;5093731;28;20381;-80
2021/05/12 06:44:05;;;;;;;;;;;13.20;99.90;;;;;;5095505;28;20324;-79
2021/05/12 06:46:31;;;;;;;;;;;13.30;99.90;;;;;;5093551;28;20316;-79
2021/05/12 06:48:56;;;;;;;;;;;13.30;99.90;;;;;;5093331;28;19915;-79
2021/05/12 06:51:22;;;;;;;;;;;13.40;99.90;;;;;;5095526;28;19904;-79
2021/05/12 06:53:47;;;;;;;;;;;13.50;99.90;;;;;;5093383;28;20450;-78
2021/05/12 06:56:13;;;;;;;;;;;13.50;99.90;;;;;;5093270;28;19912;-79
2021/05/12 06:58:41;;;;;;;;;;;13.40;99.90;;;;;;5092913;28;20006;-77
2021/05/12 07:01:08;;;;;;;;;;;13.50;99.90;;;;;;5093217;28;19970;-79
2021/05/12 07:03:34;;;;;;;;;;;13.50;99.90;;;;;;5094676;28;19943;-78
2021/05/12 07:06:00;;;;;;;;;;;13.70;99.90;;;;;;5086673;28;19912;-79
2021/05/12 07:08:26;;;;;;;;;;;13.70;99.90;;;;;;5073807;28;19912;-79
2021/05/12 07:10:51;;;;;;;;;;;13.80;99.90;;;;;;5074115;28;19913;-78
2021/05/12 07:13:17;;;;;;;;;;;13.80;99.90;;;;;;5075129;28;19957;-80
2021/05/12 07:15:43;;;;;;;;;;;13.90;99.90;;;;;;5080878;28;19909;-80
2021/05/12 07:18:08;;;;;;;;;;;14.00;99.90;;;;;;5081538;28;19923;-79
2021/05/12 07:20:34;;;;;;;;;;;14.10;99.90;;;;;;5083159;28;19904;-79
2021/05/12 07:23:06;;;;;;;;;;;14.20;99.90;;;;;;5090450;28;19927;-80
2021/05/12 07:25:32;;;;;;;;;;;14.10;99.90;;;;;;5080558;28;20367;-78
2021/05/12 07:27:58;;;;;;;;;;;14.20;99.90;;;;;;5092817;28;19910;-80
2021/05/12 07:30:24;;;;;;;;;;;14.30;99.90;;;;;;5084402;28;19904;-81
2021/05/12 07:32:49;;;;;;;;;;;14.50;99.90;;;;;;5073807;28;20389;-82
2021/05/12 07:35:15;;;;;;;;;;;14.50;99.90;;;;;;5073599;28;19912;-80
2021/05/12 07:37:41;;;;;;;6.00;3.67;;;14.60;99.90;;;;;;5071642;28;19999;-80
2021/05/12 07:40:06;;;;;;;;;;;14.80;99.90;;;;;;5073097;28;20012;-81
2021/05/12 07:42:34;;;;;;;;;;;14.90;99.90;;;;;;5080577;28;19904;-80
2021/05/12 07:44:59;;;;;;;;;;;15.00;99.90;;;;;;5090830;28;19908;-81
2021/05/12 07:47:25;;;;;;;11.60;3.65;;;15.00;99.90;;;;;;5092415;28;19961;-79
2021/05/12 07:49:50;;;;;;;5.43;3.38;;;14.80;99.90;;;;;;5091659;28;20045;-79
2021/05/12 07:52:16;;;;;;;5.00;3.47;;;14.80;99.90;;;;;;5091972;28;20375;-81
2021/05/12 07:54:42;;;;;;;;;;;14.70;99.90;;;;;;5092339;28;20478;-80
2021/05/12 07:57:07;;;;;;;;;;;14.60;99.90;;;;;;5092312;28;20343;-79
2021/05/12 07:59:33;;;;;;;;;;;14.50;99.90;;;;;;5092271;28;19904;-79
2021/05/12 08:02:01;;;;;;;;;;;14.50;99.90;;;;;;5092838;28;19904;-80
2021/05/12 08:04:26;;;;;;;;;;;14.50;99.90;;;;;;5092023;28;19908;-79
2021/05/12 08:06:52;;;;;;;;;;;14.60;99.90;;;;;;5076715;28;19904;-79
2021/05/12 08:09:17;;;;;;;;;;;14.30;99.90;;;;;;5071456;28;19957;-81
2021/05/12 08:11:43;;;;;;;;;;;14.30;99.90;;;;;;5071938;28;20375;-81
2021/05/12 08:14:08;;;;;;;;;;;14.30;99.90;;;;;;5072142;28;19919;-80
2021/05/12 08:16:34;;;;;;;;;;;14.10;99.90;;;;;;5072288;28;19904;-80
2021/05/12 08:18:59;;;;;;;;;;;14.00;99.90;;;;;;5073467;28;19957;-80
2021/05/12 08:21:24;;;;;;;;;;;13.90;99.90;;;;;;5073313;28;19904;-80
2021/05/12 08:23:50;;;;;;;;;;;13.90;99.90;;;;;;5072098;28;20025;-80
2021/05/12 08:26:16;;;;;;;;;;;13.80;99.90;;;;;;5072557;28;19904;-80
2021/05/12 08:28:42;;;;;;;;;;;13.90;99.90;;;;;;5072594;28;19911;-80
2021/05/12 08:31:07;;;;;;;;;;;14.20;99.90;;;;;;5071920;28;19904;-80
2021/05/12 08:33:33;;;;;;;;;;;14.40;99.90;;;;;;5071230;28;19911;-81
2021/05/12 08:35:58;;;;;;;;;;;14.60;99.90;;;;;;5071428;28;19912;-81
2021/05/12 08:38:24;;;;;;;;;;;14.80;99.90;;;;;;5073828;28;19912;-81
2021/05/12 08:40:53;;;;;;;;;;;14.70;99.90;;;;;;5082641;28;20367;-82
2021/05/12 08:43:18;;;;;;;;;;;14.60;99.90;;;;;;5079776;28;20394;-81
2021/05/12 08:45:44;;;;;;;;;;;14.60;99.90;;;;;;5075636;28;19950;-79
2021/05/12 08:48:13;;;;;;;;;;;14.60;99.90;;;;;;5071520;28;19908;-80
2021/05/12 08:50:39;;;;;;;;;;;14.60;99.90;;;;;;5071248;28;19940;-80
2021/05/12 08:53:04;;;;;;;;;;;14.60;99.90;;;;;;5071176;28;19959;-80
2021/05/12 08:55:31;;;;;;;;;;;14.90;99.90;;;;;;5071062;28;19905;-78
2021/05/12 08:57:56;;;;;;;;;;;15.10;99.90;;;;;;5072305;28;19912;-78
2021/05/12 09:00:22;;;;;;;;;;;15.10;99.90;;;;;;5076744;28;20276;-80
2021/05/12 09:02:47;;;;;;;;;;;15.30;99.90;;;;;;5086485;28;19958;-81
2021/05/12 09:05:13;;;;;;;;;;;15.20;99.90;;;;;;5090010;28;19931;-80
2021/05/12 09:07:39;;;;;;;;;;;15.00;99.90;;;;;;5072239;28;19991;-78
2021/05/12 09:10:04;;;;;;;;;;;15.10;99.90;;;;;;5070710;28;19904;-82
2021/05/12 09:12:46;;;;;;;;;;;15.20;99.90;;;;;;5071174;28;19904;-80
2021/05/12 09:15:15;;;;;;;;;;;15.30;99.90;;;;;;5072145;28;19912;-82
2021/05/12 09:17:41;;;;;;;;;;;15.40;99.90;;;;;;5071346;28;20398;-78
2021/05/12 09:20:19;;;;;;;;;;;15.30;99.90;;;;;;5071081;28;19904;-80
2021/05/12 09:22:45;;;;;;;;;;;15.40;99.90;;;;;;5070777;28;19908;-79
2021/05/12 09:25:16;;;;;;;;;;;15.50;99.90;;;;;;5071652;28;19949;-79
2021/05/12 09:27:46;;;;;;;3.97;2.72;;;15.70;99.90;;;;;;5071253;28;19904;-79
2021/05/12 09:30:19;;;;;;;5.50;2.97;;;15.90;99.90;;;;;;5070696;28;20017;-80
2021/05/12 09:32:45;;;;;;;4.63;2.83;;;16.10;99.90;;;;;;5071961;28;20103;-81
2021/05/12 09:35:13;;;;;;;4.50;3.20;;;15.90;99.90;;;;;;5071992;28;20063;-81
2021/05/12 09:37:40;;;;;;;;;;;15.90;99.90;;;;;;5073236;28;20283;-78
2021/05/12 09:40:10;;;;;;;;;;;15.80;99.90;;;;;;5071355;28;19999;-79
2021/05/12 09:42:37;;;;;;;;;;;15.90;99.90;;;;;;5072239;28;19908;-79
2021/05/12 09:45:16;;;;;;;;;;;16.30;99.90;;;;;;5071705;28;19912;-80
2021/05/12 09:47:42;;;;;;;;;;;16.50;99.90;;;;;;5073474;28;20260;-79
2021/05/12 09:50:13;;;;;;;;;;;16.50;99.90;;;;;;5074496;28;19954;-81
2021/05/12 09:52:39;;;;;;;;;;;16.40;99.90;;;;;;5074310;28;19905;-80
2021/05/12 09:55:06;;;;;;;8.13;2.83;;;16.80;99.90;;;;;;5074016;28;20264;-82
2021/05/12 09:57:32;;;;;;;;;;;17.00;99.90;;;;;;5094144;28;20372;-80
2021/05/12 09:59:57;;;;;;;2.85;2.47;;;17.40;99.90;;;;;;5095142;28;19904;-82
2021/05/12 10:02:23;;;;;;;8.90;3.17;;;17.80;99.90;;;;;;5094898;28;20383;-81
2021/05/12 10:04:50;;;;;;;;;;;18.20;99.90;;;;;;5094112;28;20467;-80
2021/05/12 10:07:20;;;;;;;5.25;2.88;;;18.50;99.90;;;;;;5094252;28;19904;-79
2021/05/12 10:09:49;;;;;;;5.53;3.63;;;18.60;99.90;;;;;;5093305;28;20028;-81
2021/05/12 10:12:25;;;;;;;4.50;3.20;;;18.60;99.90;;;;;;5096160;28;20437;-82
2021/05/12 10:14:55;;;;;;;4.47;2.78;;;18.40;99.90;;;;;;5096795;28;20028;-82
2021/05/12 10:17:21;;;;;;;3.58;2.90;;;18.00;99.90;;;;;;5084339;28;20032;-80
2021/05/12 10:19:47;;;;;;;;;;;18.10;99.90;;;;;;5081944;28;20024;-81
2021/05/12 10:22:14;;;;;;;;;;;18.00;99.90;;;;;;5083744;28;19915;-80
2021/05/12 10:24:42;;;;;;;4.37;3.00;;;17.90;99.90;;;;;;5086165;28;20030;-81
2021/05/12 10:27:15;;;;;;;;;;;17.80;99.90;;;;;;5080717;28;19904;-83
2021/05/12 10:29:42;;;;;;;;;;;17.80;99.90;;;;;;5083664;28;19915;-79
2021/05/12 10:32:34;;;;;;;3.45;2.20;;;17.90;99.90;;;;;;5086168;28;19912;-80
2021/05/12 10:35:01;;;;;;;;;;;18.00;99.90;;;;;;5083173;28;20070;-83
2021/05/12 10:37:29;;;;;;;3.80;2.80;;;18.10;99.90;;;;;;5089746;28;19916;-80
2021/05/12 10:40:02;;;;;;;5.90;3.03;;;18.70;99.90;;;;;;5083771;28;20020;-81
2021/05/12 10:42:47;;;;;;;3.97;2.88;;;18.50;99.90;;;;;;5084037;28;20024;-83
2021/05/12 10:45:20;;;;;;;3.05;2.20;;;18.80;99.90;;;;;;5083228;28;20437;-83
2021/05/12 10:47:45;;;;;;;4.20;2.60;;;18.70;99.90;;;;;;5086486;28;20020;-78
2021/05/12 10:50:11;;;;;;;4.30;2.38;;;18.60;99.90;;;;;;5086197;28;20021;-78
2021/05/12 10:52:36;;;;;;;;;;;18.90;99.90;;;;;;5084117;28;20969;-84
2021/05/12 10:55:02;;;;;;;;;;;19.30;99.90;;;;;;5084177;28;20026;-80
2021/05/12 10:57:37;;;;;;;;;;;19.20;99.90;;;;;;5085598;28;19930;-82
2021/05/12 11:00:03;;;;;;;4.63;2.75;;;20.00;99.90;;;;;;5079540;28;19939;-83
2021/05/12 11:02:48;;;;;;;;;;;20.20;99.90;;;;;;5092849;28;19991;-82
2021/05/12 11:05:13;;;;;;;5.07;3.58;;;21.30;99.90;;;;;;5084206;28;20003;-81
2021/05/12 11:08:18;;;;;;;3.70;2.78;;;21.40;99.90;;;;;;5087198;28;20044;-84
2021/05/12 11:10:50;;;;;;;3.33;2.42;;;21.40;99.90;;;;;;5085704;28;20043;-83
2021/05/12 11:13:23;;;;;;;4.82;2.47;;;21.40;99.90;;;;;;5087661;28;20028;-82
2021/05/12 11:15:54;;;;;;;4.65;2.53;;;21.50;99.90;;;;;;5087109;28;20024;-84
2021/05/12 11:18:39;;;;;;;5.75;2.47;;;21.20;99.90;;;;;;5085801;28;20447;-82
2021/05/12 11:21:21;;;;;;;3.30;2.70;;;21.50;99.90;;;;;;5087240;28;20066;-83
2021/05/12 11:24:09;;;;;;;2.85;2.47;;;21.50;99.90;;;;;;5088529;28;20023;-83
2021/05/12 11:32:07;;;;;;;2.47;2.28;;;20.30;99.90;;;;;;5075589;28;20100;-82
2021/05/12 11:34:33;;;;;;;4.75;2.85;;;20.60;99.90;;;;;;5074341;28;20067;-80
2021/05/12 11:37:11;;;;;;;;;;;21.00;99.90;;;;;;5085653;28;20035;-81
2021/05/12 11:39:37;;;;;;;2.97;2.17;;;20.20;99.90;;;;;;5072976;28;20294;-81
2021/05/12 11:42:03;;;;;;;2.07;1.47;;;20.00;99.90;;;;;;5080453;28;20077;-81
2021/05/12 11:44:28;;;;;;;;;;;20.00;99.90;;;;;;5094287;28;20784;-80
2021/05/12 11:46:54;;;;;;;2.50;1.90;;;19.80;99.90;;;;;;5093285;28;19962;-82
2021/05/12 11:49:22;;;;;;;5.38;2.05;;;19.30;99.90;;;;;;5093007;28;20066;-80
2021/05/12 11:51:51;;;;;;;2.55;1.95;;;20.00;99.90;;;;;;5093323;28;20028;-80
2021/05/12 11:54:22;;;;;;;3.55;2.47;;;20.50;99.90;;;;;;5085370;28;20028;-82
2021/05/12 11:56:49;;;;;;;6.60;2.42;;;20.90;99.90;;;;;;5073017;28;20406;-79
2021/05/12 11:59:39;;;;;;;3.75;1.63;;;21.10;99.90;;;;;;5073276;28;20025;-82
2021/05/12 12:02:13;;;;;;;2.63;1.88;;;21.00;99.90;;;;;;5073455;28;20108;-80
2021/05/12 12:04:46;;;;;;;3.63;1.85;;;20.70;99.90;;;;;;5075424;28;20066;-79
2021/05/12 12:07:12;;;;;;;4.53;1.55;;;20.60;99.90;;;;;;5074606;28;20036;-80
2021/05/12 12:09:37;;;;;;;;;;;20.30;99.90;;;;;;5072920;28;20073;-81
2021/05/12 12:12:03;;;;;;;;;;;19.60;99.90;;;;;;5073703;28;19959;-80
2021/05/12 12:14:32;;;;;;;;;;;19.10;99.90;;;;;;5073578;28;19911;-82
2021/05/12 12:16:58;;;;;;;;;;;18.50;99.90;;;;;;5073402;28;20388;-82
2021/05/12 12:19:26;;;;;;;;;;;18.20;99.90;;;;;;5072462;28;19908;-80
2021/05/12 12:21:54;;;;;;;;;;;18.00;99.90;;;;;;5073678;28;19911;-80
2021/05/12 12:24:22;;;;;;;;;;;17.90;99.90;;;;;;5072046;28;20377;-82
2021/05/12 12:26:55;;;;;;;;;;;17.90;99.90;;;;;;5072486;28;19911;-82
2021/05/12 12:29:22;;;;;;;;;;;17.80;99.90;;;;;;5072015;28;20018;-78
2021/05/12 12:31:49;;;;;;;;;;;17.80;99.90;;;;;;5087735;28;19915;-79
2021/05/12 12:34:19;;;;;;;;;;;17.70;99.90;;;;;;5091918;28;19949;-79
2021/05/12 12:36:46;;;;;;;;;;;17.60;99.90;;;;;;5093229;28;19908;-80
2021/05/12 12:39:12;;;;;;;;;;;17.50;99.90;;;;;;5092400;28;19911;-84
2021/05/12 12:41:38;;;;;;;;;;;17.40;99.90;;;;;;5091699;28;21373;-79
2021/05/12 12:44:04;;;;;;;;;;;17.30;99.90;;;;;;5093432;28;20402;-80
2021/05/12 12:46:30;;;;;;;;;;;17.20;99.90;;;;;;5091754;28;19915;-79
2021/05/12 12:48:55;;;;;;;;;;;16.90;99.90;;;;;;5091320;28;19919;-80
2021/05/12 12:51:40;;;;;;;;;;;16.70;99.90;;;;;;5091613;28;20049;-79
2021/05/12 12:54:06;;;;;;;;;;;16.70;99.90;;;;;;5091821;28;20025;-81
2021/05/12 12:56:32;;;;;;;;;;;16.60;99.90;;;;;;5091149;28;19951;-82
2021/05/12 12:59:17;;;;;;;;;;;16.90;99.90;;;;;;5091284;28;19935;-82
2021/05/12 13:01:43;;;;;;;;;;;17.00;99.90;;;;;;5091592;28;19908;-80
2021/05/12 13:04:13;;;;;;;;;;;17.10;99.90;;;;;;5093709;28;19931;-81
2021/05/12 13:06:38;;;;;;;;;;;17.40;99.90;;;;;;5092963;28;19908;-81
2021/05/12 13:09:22;;;;;;;;;;;17.80;99.90;;;;;;5092747;28;20371;-80
2021/05/12 13:11:55;;;;;;;3.27;1.60;;;17.80;99.90;;;;;;5093183;28;19912;-82
2021/05/12 13:14:21;;;;;;;;;;;18.00;99.90;;;;;;5093374;28;20028;-81
2021/05/12 13:16:46;;;;;;;;;;;18.30;99.90;;;;;;5093715;28;19955;-79
2021/05/12 13:19:12;;;;;;;;;;;18.40;99.90;;;;;;5093502;28;19958;-81
2021/05/12 13:21:38;;;;;;;;;;;18.60;99.90;;;;;;5094723;28;19930;-79
2021/05/12 13:24:05;;;;;;;;;;;18.50;99.90;;;;;;5098348;28;19911;-82
2021/05/12 13:26:34;;;;;;;4.50;2.10;;;18.60;99.90;;;;;;5098152;28;19904;-79
2021/05/12 13:29:15;;;;;;;2.78;1.60;;;18.40;99.90;;;;;;5097511;28;20028;-80
2021/05/12 13:31:42;;;;;;;2.20;1.35;;;18.00;99.90;;;;;;5088946;28;20040;-81
2021/05/12 13:34:10;;;;;;;2.00;1.52;;;17.90;99.90;;;;;;5083567;28;20558;-80
2021/05/12 13:36:40;;;;;;;3.22;1.77;;;18.10;99.90;;;;;;5078087;28;20433;-80
2021/05/12 13:39:06;;;;;;;2.13;1.40;;;18.10;99.90;;;;;;5077327;28;20024;-82
2021/05/12 13:41:32;;;;;;;7.55;1.35;;;18.00;99.90;;;;;;5084585;28;20020;-81
2021/05/12 13:43:57;;;;;;;;;;;18.30;99.90;;;;;;5088589;28;19961;-82
2021/05/12 13:46:23;;;;;;;;;;;18.70;99.90;;;;;;5089824;28;19908;-81
2021/05/12 13:48:48;;;;;;;;;;;18.60;99.90;;;;;;5075994;28;19909;-82
2021/05/12 13:51:14;;;;;;;;;;;18.70;99.90;;;;;;5078259;28;19949;-80
2021/05/12 13:53:53;;;;;;;;;;;18.40;99.90;;;;;;5085165;28;19940;-81
2021/05/12 13:56:37;;;;;;;;;;;18.00;99.90;;;;;;5096153;28;19961;-80
2021/05/12 13:59:24;;;;;;;;;;;18.50;99.90;;;;;;5075563;28;19912;-82
2021/05/12 14:01:56;;;;;;;;;;;18.70;99.90;;;;;;5075881;28;19915;-81
2021/05/12 14:04:22;;;;;;;;;;;18.70;99.90;;;;;;5078438;28;20289;-81
2021/05/12 14:06:48;;;;;;;1.77;1.25;;;19.10;99.90;;;;;;5079444;28;19912;-82
2021/05/12 14:09:17;;;;;;;1.60;1.05;;;19.00;99.90;;;;;;5077505;28;20040;-81